sensor_id;sensor_type;location;lat;lon;timestamp;pressure;altitude;pressure_sealevel;temperature
12854;BMP180;6495;51.808;7.478;2022-11-25T00:02:27;100611.00;;;6.70
12854;BMP180;6495;51.808;7.478;2022-11-25T00:05:14;100611.00;;;6.70
12854;BMP180;6495;51.808;7.478;2022-11-25T00:08:03;100608.00;;;6.70
12854;BMP180;6495;51.808;7.478;2022-11-25T00:10:50;100610.00;;;6.70
12854;BMP180;6495;51.808;7.478;2022-11-25T00:13:38;100598.00;;;6.70
12854;BMP180;6495;51.808;7.478;2022-11-25T00:16:26;100603.00;;;6.70
12854;BMP180;6495;51.808;7.478;2022-11-25T00:19:13;100600.00;;;6.70
12854;BMP180;6495;51.808;7.478;2022-11-25T00:22:00;100597.00;;;6.80
12854;BMP180;6495;51.808;7.478;2022-11-25T00:24:48;100592.00;;;6.80
12854;BMP180;6495;51.808;7.478;2022-11-25T00:27:35;100590.00;;;6.80
12854;BMP180;6495;51.808;7.478;2022-11-25T00:30:22;100592.00;;;6.90
12854;BMP180;6495;51.808;7.478;2022-11-25T00:33:09;100590.00;;;6.90
12854;BMP180;6495;51.808;7.478;2022-11-25T00:35:55;100583.00;;;6.90
12854;BMP180;6495;51.808;7.478;2022-11-25T00:38:46;100579.00;;;7.00
12854;BMP180;6495;51.808;7.478;2022-11-25T00:41:34;100587.00;;;7.00
12854;BMP180;6495;51.808;7.478;2022-11-25T00:44:39;100568.00;;;7.00
12854;BMP180;6495;51.808;7.478;2022-11-25T00:47:27;100579.00;;;7.00
12854;BMP180;6495;51.808;7.478;2022-11-25T00:50:14;100575.00;;;7.00
12854;BMP180;6495;51.808;7.478;2022-11-25T00:53:02;100590.00;;;7.00
12854;BMP180;6495;51.808;7.478;2022-11-25T00:55:49;100579.00;;;7.00
12854;BMP180;6495;51.808;7.478;2022-11-25T00:58:55;100573.00;;;7.10
12854;BMP180;6495;51.808;7.478;2022-11-25T01:01:42;100570.00;;;7.10
12854;BMP180;6495;51.808;7.478;2022-11-25T01:04:29;100570.00;;;7.10
12854;BMP180;6495;51.808;7.478;2022-11-25T01:07:16;100566.00;;;7.10
12854;BMP180;6495;51.808;7.478;2022-11-25T01:10:04;100556.00;;;7.20
12854;BMP180;6495;51.808;7.478;2022-11-25T01:12:51;100552.00;;;7.20
12854;BMP180;6495;51.808;7.478;2022-11-25T01:15:39;100560.00;;;7.20
12854;BMP180;6495;51.808;7.478;2022-11-25T01:18:27;100565.00;;;7.20
12854;BMP180;6495;51.808;7.478;2022-11-25T01:21:16;100566.00;;;7.20
12854;BMP180;6495;51.808;7.478;2022-11-25T01:24:05;100562.00;;;7.30
12854;BMP180;6495;51.808;7.478;2022-11-25T01:26:53;100555.00;;;7.30
12854;BMP180;6495;51.808;7.478;2022-11-25T01:29:40;100571.00;;;7.30
12854;BMP180;6495;51.808;7.478;2022-11-25T01:32:28;100566.00;;;7.40
12854;BMP180;6495;51.808;7.478;2022-11-25T01:35:15;100569.00;;;7.40
12854;BMP180;6495;51.808;7.478;2022-11-25T01:38:02;100569.00;;;7.40
12854;BMP180;6495;51.808;7.478;2022-11-25T01:40:49;100561.00;;;7.40
12854;BMP180;6495;51.808;7.478;2022-11-25T01:43:36;100556.00;;;7.40
12854;BMP180;6495;51.808;7.478;2022-11-25T01:46:26;100557.00;;;7.30
12854;BMP180;6495;51.808;7.478;2022-11-25T01:49:20;100557.00;;;7.40
12854;BMP180;6495;51.808;7.478;2022-11-25T01:52:15;100565.00;;;7.40
12854;BMP180;6495;51.808;7.478;2022-11-25T01:55:10;100544.00;;;7.40
12854;BMP180;6495;51.808;7.478;2022-11-25T01:58:04;100559.00;;;7.40
12854;BMP180;6495;51.808;7.478;2022-11-25T02:00:51;100552.00;;;7.40
12854;BMP180;6495;51.808;7.478;2022-11-25T02:03:43;100552.00;;;7.40
12854;BMP180;6495;51.808;7.478;2022-11-25T02:06:39;100543.00;;;7.50
12854;BMP180;6495;51.808;7.478;2022-11-25T02:09:27;100551.00;;;7.50
12854;BMP180;6495;51.808;7.478;2022-11-25T02:12:17;100551.00;;;7.50
12854;BMP180;6495;51.808;7.478;2022-11-25T02:15:06;100556.00;;;7.50
12854;BMP180;6495;51.808;7.478;2022-11-25T02:17:53;100549.00;;;7.60
12854;BMP180;6495;51.808;7.478;2022-11-25T02:20:41;100544.00;;;7.60
12854;BMP180;6495;51.808;7.478;2022-11-25T02:23:38;100541.00;;;7.60
12854;BMP180;6495;51.808;7.478;2022-11-25T02:26:27;100548.00;;;7.70
12854;BMP180;6495;51.808;7.478;2022-11-25T02:29:14;100547.00;;;7.70
12854;BMP180;6495;51.808;7.478;2022-11-25T02:32:01;100548.00;;;7.70
12854;BMP180;6495;51.808;7.478;2022-11-25T02:34:48;100547.00;;;7.80
12854;BMP180;6495;51.808;7.478;2022-11-25T02:37:35;100538.00;;;7.80
12854;BMP180;6495;51.808;7.478;2022-11-25T02:40:23;100539.00;;;7.80
12854;BMP180;6495;51.808;7.478;2022-11-25T02:43:13;100537.00;;;7.80
12854;BMP180;6495;51.808;7.478;2022-11-25T02:46:04;100541.00;;;7.80
12854;BMP180;6495;51.808;7.478;2022-11-25T02:48:54;100538.00;;;7.90
12854;BMP180;6495;51.808;7.478;2022-11-25T02:51:56;100534.00;;;7.90
12854;BMP180;6495;51.808;7.478;2022-11-25T02:54:43;100532.00;;;7.90
12854;BMP180;6495;51.808;7.478;2022-11-25T02:57:30;100532.00;;;7.90
12854;BMP180;6495;51.808;7.478;2022-11-25T03:00:19;100529.00;;;7.90
12854;BMP180;6495;51.808;7.478;2022-11-25T03:03:07;100530.00;;;7.90
12854;BMP180;6495;51.808;7.478;2022-11-25T03:05:53;100536.00;;;7.90
12854;BMP180;6495;51.808;7.478;2022-11-25T03:08:40;100524.00;;;7.90
12854;BMP180;6495;51.808;7.478;2022-11-25T03:11:27;100532.00;;;7.90
12854;BMP180;6495;51.808;7.478;2022-11-25T03:14:28;100528.00;;;8.00
12854;BMP180;6495;51.808;7.478;2022-11-25T03:17:17;100527.00;;;8.00
12854;BMP180;6495;51.808;7.478;2022-11-25T03:20:05;100538.00;;;8.10
12854;BMP180;6495;51.808;7.478;2022-11-25T03:22:53;100537.00;;;8.10
12854;BMP180;6495;51.808;7.478;2022-11-25T03:25:39;100543.00;;;8.10
12854;BMP180;6495;51.808;7.478;2022-11-25T03:28:26;100535.00;;;8.10
12854;BMP180;6495;51.808;7.478;2022-11-25T03:31:13;100543.00;;;8.20
12854;BMP180;6495;51.808;7.478;2022-11-25T03:34:02;100549.00;;;8.20
12854;BMP180;6495;51.808;7.478;2022-11-25T03:36:49;100549.00;;;8.20
12854;BMP180;6495;51.808;7.478;2022-11-25T03:39:35;100552.00;;;8.30
12854;BMP180;6495;51.808;7.478;2022-11-25T03:42:22;100551.00;;;8.30
12854;BMP180;6495;51.808;7.478;2022-11-25T03:45:12;100560.00;;;8.30
12854;BMP180;6495;51.808;7.478;2022-11-25T03:48:00;100564.00;;;8.40
12854;BMP180;6495;51.808;7.478;2022-11-25T03:50:48;100562.00;;;8.40
12854;BMP180;6495;51.808;7.478;2022-11-25T03:53:35;100562.00;;;8.50
12854;BMP180;6495;51.808;7.478;2022-11-25T03:56:22;100563.00;;;8.50
12854;BMP180;6495;51.808;7.478;2022-11-25T03:59:09;100575.00;;;8.50
12854;BMP180;6495;51.808;7.478;2022-11-25T04:01:56;100571.00;;;8.50
12854;BMP180;6495;51.808;7.478;2022-11-25T04:04:42;100566.00;;;8.50
12854;BMP180;6495;51.808;7.478;2022-11-25T04:07:31;100562.00;;;8.50
12854;BMP180;6495;51.808;7.478;2022-11-25T04:10:18;100570.00;;;8.60
12854;BMP180;6495;51.808;7.478;2022-11-25T04:13:05;100565.00;;;8.50
12854;BMP180;6495;51.808;7.478;2022-11-25T04:15:51;100569.00;;;8.50
12854;BMP180;6495;51.808;7.478;2022-11-25T04:18:38;100577.00;;;8.50
12854;BMP180;6495;51.808;7.478;2022-11-25T04:21:25;100565.00;;;8.50
12854;BMP180;6495;51.808;7.478;2022-11-25T04:24:13;100581.00;;;8.60
12854;BMP180;6495;51.808;7.478;2022-11-25T04:26:59;100582.00;;;8.60
12854;BMP180;6495;51.808;7.478;2022-11-25T04:29:46;100587.00;;;8.60
12854;BMP180;6495;51.808;7.478;2022-11-25T04:32:36;100589.00;;;8.60
12854;BMP180;6495;51.808;7.478;2022-11-25T04:35:23;100577.00;;;8.60
12854;BMP180;6495;51.808;7.478;2022-11-25T04:38:10;100590.00;;;8.50
12854;BMP180;6495;51.808;7.478;2022-11-25T04:40:58;100598.00;;;8.60
12854;BMP180;6495;51.808;7.478;2022-11-25T04:43:45;100594.00;;;8.60
12854;BMP180;6495;51.808;7.478;2022-11-25T04:46:37;100608.00;;;8.60
12854;BMP180;6495;51.808;7.478;2022-11-25T04:49:25;100607.00;;;8.60
12854;BMP180;6495;51.808;7.478;2022-11-25T04:52:12;100608.00;;;8.60
12854;BMP180;6495;51.808;7.478;2022-11-25T04:54:59;100610.00;;;8.60
12854;BMP180;6495;51.808;7.478;2022-11-25T04:57:48;100596.00;;;8.60
12854;BMP180;6495;51.808;7.478;2022-11-25T05:00:35;100604.00;;;8.70
12854;BMP180;6495;51.808;7.478;2022-11-25T05:03:21;100605.00;;;8.60
12854;BMP180;6495;51.808;7.478;2022-11-25T05:06:08;100609.00;;;8.70
12854;BMP180;6495;51.808;7.478;2022-11-25T05:08:55;100619.00;;;8.70
12854;BMP180;6495;51.808;7.478;2022-11-25T05:11:42;100623.00;;;8.70
12854;BMP180;6495;51.808;7.478;2022-11-25T05:14:30;100620.00;;;8.70
12854;BMP180;6495;51.808;7.478;2022-11-25T05:17:20;100619.00;;;8.70
12854;BMP180;6495;51.808;7.478;2022-11-25T05:20:09;100625.00;;;8.80
12854;BMP180;6495;51.808;7.478;2022-11-25T05:22:57;100629.00;;;8.80
12854;BMP180;6495;51.808;7.478;2022-11-25T05:25:44;100634.00;;;8.80
12854;BMP180;6495;51.808;7.478;2022-11-25T05:28:31;100632.00;;;8.80
12854;BMP180;6495;51.808;7.478;2022-11-25T05:31:21;100628.00;;;8.90
12854;BMP180;6495;51.808;7.478;2022-11-25T05:34:07;100635.00;;;8.80
12854;BMP180;6495;51.808;7.478;2022-11-25T05:36:54;100624.00;;;8.80
12854;BMP180;6495;51.808;7.478;2022-11-25T05:39:41;100632.00;;;8.80
12854;BMP180;6495;51.808;7.478;2022-11-25T05:42:32;100638.00;;;8.90
12854;BMP180;6495;51.808;7.478;2022-11-25T05:45:26;100631.00;;;8.90
12854;BMP180;6495;51.808;7.478;2022-11-25T05:52:32;100632.00;;;8.90
12854;BMP180;6495;51.808;7.478;2022-11-25T05:55:18;100632.00;;;8.80
12854;BMP180;6495;51.808;7.478;2022-11-25T05:58:05;100638.00;;;8.80
12854;BMP180;6495;51.808;7.478;2022-11-25T06:00:52;100634.00;;;8.70
12854;BMP180;6495;51.808;7.478;2022-11-25T06:03:41;100628.00;;;8.70
12854;BMP180;6495;51.808;7.478;2022-11-25T06:06:29;100634.00;;;8.60
12854;BMP180;6495;51.808;7.478;2022-11-25T06:09:18;100635.00;;;8.60
12854;BMP180;6495;51.808;7.478;2022-11-25T06:12:05;100639.00;;;8.60
12854;BMP180;6495;51.808;7.478;2022-11-25T06:14:52;100639.00;;;8.60
12854;BMP180;6495;51.808;7.478;2022-11-25T06:17:39;100642.00;;;8.60
12854;BMP180;6495;51.808;7.478;2022-11-25T06:20:26;100651.00;;;8.60
12854;BMP180;6495;51.808;7.478;2022-11-25T06:23:13;100649.00;;;8.60
12854;BMP180;6495;51.808;7.478;2022-11-25T06:26:07;100649.00;;;8.60
12854;BMP180;6495;51.808;7.478;2022-11-25T06:28:55;100651.00;;;8.70
12854;BMP180;6495;51.808;7.478;2022-11-25T06:31:42;100644.00;;;8.70
12854;BMP180;6495;51.808;7.478;2022-11-25T06:34:29;100647.00;;;8.70
12854;BMP180;6495;51.808;7.478;2022-11-25T06:37:15;100632.00;;;8.70
12854;BMP180;6495;51.808;7.478;2022-11-25T06:40:04;100646.00;;;8.60
12854;BMP180;6495;51.808;7.478;2022-11-25T06:42:52;100666.00;;;8.60
12854;BMP180;6495;51.808;7.478;2022-11-25T06:45:40;100665.00;;;8.70
12854;BMP180;6495;51.808;7.478;2022-11-25T06:48:26;100670.00;;;8.70
12854;BMP180;6495;51.808;7.478;2022-11-25T06:51:15;100683.00;;;8.70
12854;BMP180;6495;51.808;7.478;2022-11-25T06:54:01;100687.00;;;8.70
12854;BMP180;6495;51.808;7.478;2022-11-25T06:56:48;100686.00;;;8.80
12854;BMP180;6495;51.808;7.478;2022-11-25T06:59:40;100697.00;;;8.80
12854;BMP180;6495;51.808;7.478;2022-11-25T07:02:28;100709.00;;;8.80
12854;BMP180;6495;51.808;7.478;2022-11-25T07:05:25;100711.00;;;8.80
12854;BMP180;6495;51.808;7.478;2022-11-25T07:08:13;100709.00;;;8.80
12854;BMP180;6495;51.808;7.478;2022-11-25T07:11:03;100721.00;;;8.80
12854;BMP180;6495;51.808;7.478;2022-11-25T07:13:53;100722.00;;;8.80
12854;BMP180;6495;51.808;7.478;2022-11-25T07:16:43;100722.00;;;8.90
12854;BMP180;6495;51.808;7.478;2022-11-25T07:19:30;100732.00;;;8.90
12854;BMP180;6495;51.808;7.478;2022-11-25T07:22:18;100739.00;;;8.90
12854;BMP180;6495;51.808;7.478;2022-11-25T07:25:05;100745.00;;;8.90
12854;BMP180;6495;51.808;7.478;2022-11-25T07:27:53;100751.00;;;8.90
12854;BMP180;6495;51.808;7.478;2022-11-25T07:30:40;100758.00;;;8.90
12854;BMP180;6495;51.808;7.478;2022-11-25T07:33:51;100757.00;;;9.00
12854;BMP180;6495;51.808;7.478;2022-11-25T07:36:40;100755.00;;;9.00
12854;BMP180;6495;51.808;7.478;2022-11-25T07:39:27;100759.00;;;8.90
12854;BMP180;6495;51.808;7.478;2022-11-25T07:42:14;100760.00;;;9.00
12854;BMP180;6495;51.808;7.478;2022-11-25T07:45:01;100774.00;;;9.00
12854;BMP180;6495;51.808;7.478;2022-11-25T07:47:48;100788.00;;;9.00
12854;BMP180;6495;51.808;7.478;2022-11-25T07:50:37;100792.00;;;9.00
12854;BMP180;6495;51.808;7.478;2022-11-25T07:53:23;100776.00;;;9.00
12854;BMP180;6495;51.808;7.478;2022-11-25T07:56:11;100776.00;;;9.00
12854;BMP180;6495;51.808;7.478;2022-11-25T07:58:59;100780.00;;;9.00
12854;BMP180;6495;51.808;7.478;2022-11-25T08:01:48;100788.00;;;9.00
12854;BMP180;6495;51.808;7.478;2022-11-25T08:04:36;100790.00;;;9.00
12854;BMP180;6495;51.808;7.478;2022-11-25T08:07:24;100788.00;;;9.00
12854;BMP180;6495;51.808;7.478;2022-11-25T08:10:18;100797.00;;;9.00
12854;BMP180;6495;51.808;7.478;2022-11-25T08:13:04;100798.00;;;9.00
12854;BMP180;6495;51.808;7.478;2022-11-25T08:15:52;100806.00;;;9.00
12854;BMP180;6495;51.808;7.478;2022-11-25T08:18:39;100807.00;;;9.00
12854;BMP180;6495;51.808;7.478;2022-11-25T08:21:27;100800.00;;;9.00
12854;BMP180;6495;51.808;7.478;2022-11-25T08:24:19;100812.00;;;9.00
12854;BMP180;6495;51.808;7.478;2022-11-25T08:27:06;100817.00;;;9.00
12854;BMP180;6495;51.808;7.478;2022-11-25T08:29:53;100818.00;;;9.00
12854;BMP180;6495;51.808;7.478;2022-11-25T08:32:39;100821.00;;;9.00
12854;BMP180;6495;51.808;7.478;2022-11-25T08:35:26;100826.00;;;9.10
12854;BMP180;6495;51.808;7.478;2022-11-25T08:38:13;100824.00;;;9.00
12854;BMP180;6495;51.808;7.478;2022-11-25T08:41:02;100833.00;;;9.00
12854;BMP180;6495;51.808;7.478;2022-11-25T08:43:49;100845.00;;;9.10
12854;BMP180;6495;51.808;7.478;2022-11-25T08:46:36;100836.00;;;9.10
12854;BMP180;6495;51.808;7.478;2022-11-25T08:49:24;100839.00;;;9.10
12854;BMP180;6495;51.808;7.478;2022-11-25T08:52:11;100834.00;;;9.10
12854;BMP180;6495;51.808;7.478;2022-11-25T08:54:58;100835.00;;;9.10
12854;BMP180;6495;51.808;7.478;2022-11-25T08:57:46;100836.00;;;9.10
12854;BMP180;6495;51.808;7.478;2022-11-25T09:00:33;100847.00;;;9.10
12854;BMP180;6495;51.808;7.478;2022-11-25T09:03:20;100847.00;;;9.20
12854;BMP180;6495;51.808;7.478;2022-11-25T09:06:09;100850.00;;;9.20
12854;BMP180;6495;51.808;7.478;2022-11-25T09:08:57;100852.00;;;9.30
12854;BMP180;6495;51.808;7.478;2022-11-25T09:11:46;100862.00;;;9.40
12854;BMP180;6495;51.808;7.478;2022-11-25T09:14:34;100857.00;;;9.40
12854;BMP180;6495;51.808;7.478;2022-11-25T09:17:21;100861.00;;;9.40
12854;BMP180;6495;51.808;7.478;2022-11-25T09:20:09;100864.00;;;9.50
12854;BMP180;6495;51.808;7.478;2022-11-25T09:22:58;100879.00;;;9.60
12854;BMP180;6495;51.808;7.478;2022-11-25T09:25:50;100877.00;;;9.70
12854;BMP180;6495;51.808;7.478;2022-11-25T09:28:37;100879.00;;;9.80
12854;BMP180;6495;51.808;7.478;2022-11-25T09:31:26;100873.00;;;9.90
12854;BMP180;6495;51.808;7.478;2022-11-25T09:34:13;100883.00;;;10.00
12854;BMP180;6495;51.808;7.478;2022-11-25T09:37:00;100893.00;;;10.20
12854;BMP180;6495;51.808;7.478;2022-11-25T09:39:46;100896.00;;;10.30
12854;BMP180;6495;51.808;7.478;2022-11-25T09:42:48;100897.00;;;10.50
12854;BMP180;6495;51.808;7.478;2022-11-25T09:46:07;100903.00;;;10.60
12854;BMP180;6495;51.808;7.478;2022-11-25T09:49:39;100903.00;;;10.80
12854;BMP180;6495;51.808;7.478;2022-11-25T09:52:41;100909.00;;;10.90
12854;BMP180;6495;51.808;7.478;2022-11-25T09:55:37;100917.00;;;11.00
12854;BMP180;6495;51.808;7.478;2022-11-25T09:58:33;100919.00;;;11.20
12854;BMP180;6495;51.808;7.478;2022-11-25T10:01:25;100922.00;;;11.30
12854;BMP180;6495;51.808;7.478;2022-11-25T10:04:25;100922.00;;;11.40
12854;BMP180;6495;51.808;7.478;2022-11-25T10:07:21;100932.00;;;11.60
12854;BMP180;6495;51.808;7.478;2022-11-25T10:10:18;100933.00;;;11.70
12854;BMP180;6495;51.808;7.478;2022-11-25T10:13:18;100937.00;;;11.80
12854;BMP180;6495;51.808;7.478;2022-11-25T10:16:16;100937.00;;;11.80
12854;BMP180;6495;51.808;7.478;2022-11-25T10:19:15;100938.00;;;11.80
12854;BMP180;6495;51.808;7.478;2022-11-25T10:22:21;100943.00;;;11.90
12854;BMP180;6495;51.808;7.478;2022-11-25T10:25:16;100946.00;;;12.00
12854;BMP180;6495;51.808;7.478;2022-11-25T10:28:17;100962.00;;;12.10
12854;BMP180;6495;51.808;7.478;2022-11-25T10:31:13;100968.00;;;12.10
12854;BMP180;6495;51.808;7.478;2022-11-25T10:34:25;100956.00;;;12.10
12854;BMP180;6495;51.808;7.478;2022-11-25T10:37:29;100968.00;;;12.10
12854;BMP180;6495;51.808;7.478;2022-11-25T10:40:19;100970.00;;;12.10
12854;BMP180;6495;51.808;7.478;2022-11-25T10:43:11;100979.00;;;12.20
12854;BMP180;6495;51.808;7.478;2022-11-25T10:46:09;100971.00;;;12.30
12854;BMP180;6495;51.808;7.478;2022-11-25T10:49:06;100965.00;;;12.40
12854;BMP180;6495;51.808;7.478;2022-11-25T10:51:57;100969.00;;;12.50
12854;BMP180;6495;51.808;7.478;2022-11-25T10:54:55;100979.00;;;12.50
12854;BMP180;6495;51.808;7.478;2022-11-25T10:57:43;100984.00;;;12.60
12854;BMP180;6495;51.808;7.478;2022-11-25T11:00:33;100982.00;;;12.70
12854;BMP180;6495;51.808;7.478;2022-11-25T11:03:24;100995.00;;;12.70
12854;BMP180;6495;51.808;7.478;2022-11-25T11:06:31;100998.00;;;12.80
12854;BMP180;6495;51.808;7.478;2022-11-25T11:09:35;100990.00;;;12.90
12854;BMP180;6495;51.808;7.478;2022-11-25T11:12:27;100999.00;;;12.90
12854;BMP180;6495;51.808;7.478;2022-11-25T11:15:19;100998.00;;;12.90
12854;BMP180;6495;51.808;7.478;2022-11-25T11:18:22;101005.00;;;12.80
12854;BMP180;6495;51.808;7.478;2022-11-25T11:21:24;100997.00;;;12.90
12854;BMP180;6495;51.808;7.478;2022-11-25T11:24:27;100996.00;;;12.90
12854;BMP180;6495;51.808;7.478;2022-11-25T11:27:20;101004.00;;;13.00
12854;BMP180;6495;51.808;7.478;2022-11-25T11:30:14;101000.00;;;13.00
12854;BMP180;6495;51.808;7.478;2022-11-25T11:33:04;101006.00;;;13.10
12854;BMP180;6495;51.808;7.478;2022-11-25T11:36:02;101016.00;;;13.10
12854;BMP180;6495;51.808;7.478;2022-11-25T11:38:58;101014.00;;;13.10
12854;BMP180;6495;51.808;7.478;2022-11-25T11:41:55;101024.00;;;13.20
12854;BMP180;6495;51.808;7.478;2022-11-25T11:45:03;101017.00;;;13.20
12854;BMP180;6495;51.808;7.478;2022-11-25T11:48:10;101027.00;;;13.10
12854;BMP180;6495;51.808;7.478;2022-11-25T11:51:07;101033.00;;;13.10
12854;BMP180;6495;51.808;7.478;2022-11-25T11:54:05;101031.00;;;13.10
12854;BMP180;6495;51.808;7.478;2022-11-25T11:57:01;101033.00;;;13.10
12854;BMP180;6495;51.808;7.478;2022-11-25T11:59:52;101031.00;;;13.10
12854;BMP180;6495;51.808;7.478;2022-11-25T12:02:58;101026.00;;;13.00
12854;BMP180;6495;51.808;7.478;2022-11-25T12:05:48;101033.00;;;13.00
12854;BMP180;6495;51.808;7.478;2022-11-25T12:08:48;101036.00;;;12.90
12854;BMP180;6495;51.808;7.478;2022-11-25T12:11:43;101042.00;;;12.90
12854;BMP180;6495;51.808;7.478;2022-11-25T12:14:38;101051.00;;;13.00
12854;BMP180;6495;51.808;7.478;2022-11-25T12:17:33;101048.00;;;13.10
12854;BMP180;6495;51.808;7.478;2022-11-25T12:20:34;101051.00;;;13.10
12854;BMP180;6495;51.808;7.478;2022-11-25T12:23:31;101054.00;;;13.10
12854;BMP180;6495;51.808;7.478;2022-11-25T12:26:29;101059.00;;;13.10
12854;BMP180;6495;51.808;7.478;2022-11-25T12:29:34;101062.00;;;13.10
12854;BMP180;6495;51.808;7.478;2022-11-25T12:32:50;101065.00;;;13.10
12854;BMP180;6495;51.808;7.478;2022-11-25T12:35:50;101069.00;;;13.00
12854;BMP180;6495;51.808;7.478;2022-11-25T12:38:44;101066.00;;;13.00
12854;BMP180;6495;51.808;7.478;2022-11-25T12:41:40;101078.00;;;12.90
12854;BMP180;6495;51.808;7.478;2022-11-25T12:44:30;101076.00;;;12.80
12854;BMP180;6495;51.808;7.478;2022-11-25T12:47:19;101084.00;;;12.80
12854;BMP180;6495;51.808;7.478;2022-11-25T12:50:15;101085.00;;;12.70
12854;BMP180;6495;51.808;7.478;2022-11-25T12:53:08;101086.00;;;12.70
12854;BMP180;6495;51.808;7.478;2022-11-25T12:56:03;101095.00;;;12.70
12854;BMP180;6495;51.808;7.478;2022-11-25T12:59:20;101106.00;;;12.70
12854;BMP180;6495;51.808;7.478;2022-11-25T13:02:39;101115.00;;;12.70
12854;BMP180;6495;51.808;7.478;2022-11-25T13:05:58;101117.00;;;12.80
12854;BMP180;6495;51.808;7.478;2022-11-25T13:09:02;101119.00;;;12.80
12854;BMP180;6495;51.808;7.478;2022-11-25T13:12:19;101125.00;;;12.70
12854;BMP180;6495;51.808;7.478;2022-11-25T13:15:24;101124.00;;;12.70
12854;BMP180;6495;51.808;7.478;2022-11-25T13:18:16;101130.00;;;12.70
12854;BMP180;6495;51.808;7.478;2022-11-25T13:21:08;101130.00;;;12.70
12854;BMP180;6495;51.808;7.478;2022-11-25T13:23:57;101136.00;;;12.70
12854;BMP180;6495;51.808;7.478;2022-11-25T13:26:49;101136.00;;;12.70
12854;BMP180;6495;51.808;7.478;2022-11-25T13:29:58;101140.00;;;12.70
12854;BMP180;6495;51.808;7.478;2022-11-25T13:32:45;101140.00;;;12.70
12854;BMP180;6495;51.808;7.478;2022-11-25T13:35:48;101146.00;;;12.70
12854;BMP180;6495;51.808;7.478;2022-11-25T13:39:03;101144.00;;;12.70
12854;BMP180;6495;51.808;7.478;2022-11-25T13:42:00;101147.00;;;12.70
12854;BMP180;6495;51.808;7.478;2022-11-25T13:44:51;101156.00;;;12.70
12854;BMP180;6495;51.808;7.478;2022-11-25T13:47:41;101160.00;;;12.60
12854;BMP180;6495;51.808;7.478;2022-11-25T13:50:31;101164.00;;;12.60
12854;BMP180;6495;51.808;7.478;2022-11-25T13:53:38;101169.00;;;12.50
12854;BMP180;6495;51.808;7.478;2022-11-25T13:56:30;101175.00;;;12.50
12854;BMP180;6495;51.808;7.478;2022-11-25T13:59:35;101175.00;;;12.50
12854;BMP180;6495;51.808;7.478;2022-11-25T14:02:32;101177.00;;;12.50
12854;BMP180;6495;51.808;7.478;2022-11-25T14:05:47;101183.00;;;12.60
12854;BMP180;6495;51.808;7.478;2022-11-25T14:08:51;101190.00;;;12.50
12854;BMP180;6495;51.808;7.478;2022-11-25T14:15:23;101196.00;;;12.50
12854;BMP180;6495;51.808;7.478;2022-11-25T14:18:45;101211.00;;;12.50
12854;BMP180;6495;51.808;7.478;2022-11-25T14:22:09;101210.00;;;12.50
12854;BMP180;6495;51.808;7.478;2022-11-25T14:25:13;101214.00;;;12.40
12854;BMP180;6495;51.808;7.478;2022-11-25T14:28:13;101219.00;;;12.40
12854;BMP180;6495;51.808;7.478;2022-11-25T14:31:08;101213.00;;;12.40
12854;BMP180;6495;51.808;7.478;2022-11-25T14:34:00;101211.00;;;12.30
12854;BMP180;6495;51.808;7.478;2022-11-25T14:36:53;101221.00;;;12.40
12854;BMP180;6495;51.808;7.478;2022-11-25T14:39:49;101214.00;;;12.40
12854;BMP180;6495;51.808;7.478;2022-11-25T14:42:42;101213.00;;;12.30
12854;BMP180;6495;51.808;7.478;2022-11-25T14:45:33;101211.00;;;12.30
12854;BMP180;6495;51.808;7.478;2022-11-25T14:48:24;101217.00;;;12.30
12854;BMP180;6495;51.808;7.478;2022-11-25T14:51:12;101228.00;;;12.20
12854;BMP180;6495;51.808;7.478;2022-11-25T14:54:02;101235.00;;;12.20
12854;BMP180;6495;51.808;7.478;2022-11-25T14:56:52;101236.00;;;12.20
12854;BMP180;6495;51.808;7.478;2022-11-25T14:59:39;101241.00;;;12.20
12854;BMP180;6495;51.808;7.478;2022-11-25T15:02:34;101244.00;;;12.20
12854;BMP180;6495;51.808;7.478;2022-11-25T15:05:24;101250.00;;;12.20
12854;BMP180;6495;51.808;7.478;2022-11-25T15:08:15;101248.00;;;12.20
12854;BMP180;6495;51.808;7.478;2022-11-25T15:11:11;101254.00;;;12.10
12854;BMP180;6495;51.808;7.478;2022-11-25T15:14:02;101253.00;;;12.10
12854;BMP180;6495;51.808;7.478;2022-11-25T15:16:53;101261.00;;;12.10
12854;BMP180;6495;51.808;7.478;2022-11-25T15:19:43;101262.00;;;12.10
12854;BMP180;6495;51.808;7.478;2022-11-25T15:22:29;101266.00;;;12.10
12854;BMP180;6495;51.808;7.478;2022-11-25T15:25:17;101279.00;;;12.10
12854;BMP180;6495;51.808;7.478;2022-11-25T15:28:15;101276.00;;;12.10
12854;BMP180;6495;51.808;7.478;2022-11-25T15:31:08;101279.00;;;12.10
12854;BMP180;6495;51.808;7.478;2022-11-25T15:34:02;101280.00;;;12.10
12854;BMP180;6495;51.808;7.478;2022-11-25T15:36:50;101283.00;;;12.10
12854;BMP180;6495;51.808;7.478;2022-11-25T15:39:39;101289.00;;;12.00
12854;BMP180;6495;51.808;7.478;2022-11-25T15:42:26;101284.00;;;12.00
12854;BMP180;6495;51.808;7.478;2022-11-25T15:45:20;101289.00;;;12.00
12854;BMP180;6495;51.808;7.478;2022-11-25T15:48:15;101287.00;;;12.00
12854;BMP180;6495;51.808;7.478;2022-11-25T15:51:20;101295.00;;;12.00
12854;BMP180;6495;51.808;7.478;2022-11-25T15:54:19;101303.00;;;12.00
12854;BMP180;6495;51.808;7.478;2022-11-25T15:57:16;101303.00;;;12.00
12854;BMP180;6495;51.808;7.478;2022-11-25T16:00:17;101317.00;;;12.00
12854;BMP180;6495;51.808;7.478;2022-11-25T16:03:19;101319.00;;;12.00
12854;BMP180;6495;51.808;7.478;2022-11-25T16:06:20;101316.00;;;12.00
12854;BMP180;6495;51.808;7.478;2022-11-25T16:09:20;101332.00;;;12.00
12854;BMP180;6495;51.808;7.478;2022-11-25T16:12:16;101330.00;;;12.00
12854;BMP180;6495;51.808;7.478;2022-11-25T16:15:04;101333.00;;;11.90
12854;BMP180;6495;51.808;7.478;2022-11-25T16:18:01;101342.00;;;11.90
12854;BMP180;6495;51.808;7.478;2022-11-25T16:21:11;101342.00;;;11.90
12854;BMP180;6495;51.808;7.478;2022-11-25T16:24:26;101363.00;;;11.90
12854;BMP180;6495;51.808;7.478;2022-11-25T16:27:22;101356.00;;;11.90
12854;BMP180;6495;51.808;7.478;2022-11-25T16:30:18;101367.00;;;11.90
12854;BMP180;6495;51.808;7.478;2022-11-25T16:33:08;101370.00;;;11.90
12854;BMP180;6495;51.808;7.478;2022-11-25T16:35:55;101374.00;;;11.90
12854;BMP180;6495;51.808;7.478;2022-11-25T16:38:44;101379.00;;;11.80
12854;BMP180;6495;51.808;7.478;2022-11-25T16:41:33;101377.00;;;11.90
12854;BMP180;6495;51.808;7.478;2022-11-25T16:44:24;101382.00;;;11.80
12854;BMP180;6495;51.808;7.478;2022-11-25T16:47:11;101387.00;;;11.80
12854;BMP180;6495;51.808;7.478;2022-11-25T16:49:58;101392.00;;;11.80